WAOO/BDJ METAR and TAF weather

Enter ICAO airport designator
Station Type Date Time Source
WAOO METAR 2020/12/05 06:00 UTC NOAA

WAOO 050600Z 13006KT 9999 FEW020 27/23 Q1007 NOSIG


Station Type Date Time Source
WAOO Decoded METAR 2020/12/05 06:00 UTC NOAA

Station name not available
Dec 05, 2020 - 01:00 AM EST / 2020.12.05 0600 UTC
Wind: from the SE (130 degrees) at 7 MPH (6 KT):0
Visibility: greater than 7 mile(s):0
Sky conditions: mostly clear
Temperature: 80 F (27 C)
Dew Point: 73 F (23 C)
Relative Humidity: 78%
Pressure (altimeter): 29.74 in. Hg (1007 hPa)
ob: WAOO 050600Z 13006KT 9999 FEW020 27/23 Q1007 NOSIG
cycle: 6

Station Type Date Time Source
WAOO TAF 2020/12/05 06:30 UTC NOAA

TAF WAOO 050500Z 0506/0606 22006KT 9999 SCT016=

Example: see airport list